Garwin, Iowa
Current Conditions -  °F | °C
As of 4:53 AM on Tuesday 21 Oct 2014 (Local Time) from KMIW Reporting Station
Clear Clear  
Wind Chill: 36°   Ceiling: Unl
Heat Index: 39°   Visibility: 10mi
Dew Point: 37°   Wind: 5mph
Humidity: 93%   Direction: 100°E
Pressure: 30.1"   Gusts: NA
Location:  42.09°N, 92.68°W
Report Text: KMIW 210953Z AUTO 10004KT 10SM CLR 04/03 A3010 RMK AO2 SLP194 T00390028
Loading
Personal Weather Stations






























Interactive Weather Map New forecast layout! Learn more

10-Day Weather Forecast

Advertisements
Track Severe Weather on mobile